Time;durP1;ratioP1;P1;durP2;ratioP2;P2;SDS_P1;SDS_P2;PMS_P1;PMS_P2;Temp;Humidity;BMP_temperature;BMP_pressure;BME280_temperature;BME280_humidity;BME280_pressure;Samples;Min_cycle;Max_cycle;Signal;HPM_P1;HPM_P2
2022/10/28 00:01:08;;;;;;;18.58;5.93;;;16.80;99.90;;;;;;5005003;28;20036;-60
2022/10/28 00:03:37;;;;;;;12.50;5.28;;;16.80;99.90;;;;;;5009709;28;20049;-60
2022/10/28 00:06:09;;;;;;;15.70;6.00;;;16.80;99.90;;;;;;5011393;28;20037;-59
2022/10/28 00:08:35;;;;;;;19.27;5.20;;;16.90;99.90;;;;;;5008182;28;20014;-59
2022/10/28 00:11:06;;;;;;;15.93;5.00;;;16.90;99.90;;;;;;5014020;28;20107;-60
2022/10/28 00:13:31;;;;;;;25.15;5.90;;;16.90;99.90;;;;;;5011945;28;20026;-60
2022/10/28 00:16:24;;;;;;;27.73;4.93;;;16.90;99.90;;;;;;5011721;28;20097;-58
2022/10/28 00:18:52;;;;;;;15.82;4.72;;;17.00;99.90;;;;;;5003574;28;20080;-59
2022/10/28 00:21:20;;;;;;;12.85;5.13;;;17.00;99.90;;;;;;5006686;28;20034;-61
2022/10/28 00:23:46;;;;;;;14.13;5.13;;;17.00;99.90;;;;;;5021102;28;20028;-59
2022/10/28 00:26:14;;;;;;;21.48;5.20;;;17.00;99.90;;;;;;5010801;28;20030;-59
2022/10/28 00:28:48;;;;;;;16.45;4.72;;;17.10;99.90;;;;;;5012440;28;20029;-59
2022/10/28 00:31:16;;;;;;;12.82;5.28;;;17.10;99.90;;;;;;5007286;28;20030;-59
2022/10/28 00:33:42;;;;;;;18.42;5.88;;;17.10;99.90;;;;;;5014745;28;20075;-57
2022/10/28 00:36:17;;;;;;;11.85;4.68;;;17.10;99.90;;;;;;5009126;28;20022;-60
2022/10/28 00:38:43;;;;;;;;;;;17.10;99.90;;;;;;5014512;28;20037;-60
2022/10/28 00:41:10;;;;;;;12.13;4.30;;;17.10;99.90;;;;;;5008179;28;19916;-59
2022/10/28 00:43:39;;;;;;;17.70;4.30;;;17.10;99.90;;;;;;5008939;28;20380;-55
2022/10/28 00:46:16;;;;;;;14.68;5.55;;;17.10;99.90;;;;;;5008063;28;20022;-61
2022/10/28 00:48:44;;;;;;;17.70;5.03;;;17.00;99.90;;;;;;5009107;28;20072;-58
2022/10/28 00:51:09;;;;;;;18.00;5.93;;;17.00;99.90;;;;;;5008171;28;20053;-60
2022/10/28 00:53:36;;;;;;;15.02;4.88;;;17.00;99.90;;;;;;5006278;28;20064;-59
2022/10/28 00:56:03;;;;;;;17.02;5.50;;;17.00;99.90;;;;;;5012570;28;20036;-60
2022/10/28 00:58:29;;;;;;;18.85;5.65;;;17.00;99.90;;;;;;5015511;28;20065;-59
2022/10/28 01:00:55;;;;;;;10.95;4.68;;;17.10;99.90;;;;;;5004470;28;20049;-57
2022/10/28 01:03:21;;;;;;;14.15;4.75;;;17.10;99.90;;;;;;5005526;28;20041;-58
2022/10/28 01:05:48;;;;;;;13.52;4.80;;;17.10;99.90;;;;;;5013088;28;20018;-61
2022/10/28 01:08:15;;;;;;;16.30;5.13;;;17.10;99.90;;;;;;5015174;28;20399;-60
2022/10/28 01:10:46;;;;;;;17.45;4.68;;;17.10;99.90;;;;;;5015044;28;20088;-60
2022/10/28 01:13:32;;;;;;;11.40;4.32;;;17.10;99.90;;;;;;5014369;28;20113;-59
2022/10/28 01:15:59;;;;;;;15.43;5.80;;;17.10;99.90;;;;;;5010184;28;20037;-59
2022/10/28 01:18:47;;;;;;;12.93;5.07;;;17.10;99.90;;;;;;5017318;28;20041;-60
2022/10/28 01:21:34;;;;;;;14.90;5.50;;;17.10;99.90;;;;;;5018366;28;20034;-59
2022/10/28 01:24:23;;;;;;;9.38;4.50;;;17.10;99.90;;;;;;5011021;28;20030;-61
2022/10/28 01:27:08;;;;;;;11.93;4.28;;;17.10;99.90;;;;;;5014651;28;20475;-59
2022/10/28 01:29:50;;;;;;;14.55;5.25;;;17.10;99.90;;;;;;5016018;28;20476;-58
2022/10/28 01:32:38;;;;;;;12.95;4.68;;;17.10;99.90;;;;;;5009237;28;20040;-60
2022/10/28 01:35:11;;;;;;;23.20;5.00;;;17.10;99.90;;;;;;5014359;28;20037;-59
2022/10/28 01:38:09;;;;;;;20.35;4.60;;;17.10;99.90;;;;;;5014100;28;20038;-59
2022/10/28 01:40:46;;;;;;;16.45;4.30;;;17.10;99.90;;;;;;4978374;28;20500;-59
2022/10/28 01:43:19;;;;;;;14.40;5.40;;;17.00;99.90;;;;;;5016082;28;20029;-59
2022/10/28 01:46:00;;;;;;;15.52;4.60;;;17.00;99.90;;;;;;5012786;28;20061;-60
2022/10/28 01:48:38;;;;;;;13.32;4.32;;;17.00;99.90;;;;;;5009527;28;20030;-60
2022/10/28 01:51:08;;;;;;;20.42;4.78;;;17.00;99.90;;;;;;5002190;28;20092;-60
2022/10/28 01:53:38;;;;;;;17.83;5.07;;;17.00;99.90;;;;;;5009158;28;20025;-59
2022/10/28 01:56:09;;;;;;;20.88;6.32;;;16.90;99.90;;;;;;5017051;28;20038;-59
2022/10/28 01:58:36;;;;;;;15.35;4.53;;;17.00;99.90;;;;;;5012075;28;20036;-59
2022/10/28 02:01:06;;;;;;;18.90;4.72;;;16.90;99.90;;;;;;5009690;28;20022;-59
2022/10/28 02:03:31;;;;;;;22.10;5.15;;;16.90;99.90;;;;;;5010428;28;20037;-60
2022/10/28 02:06:01;;;;;;;17.58;5.35;;;16.90;99.90;;;;;;5012733;28;20030;-60
2022/10/28 02:08:48;;;;;;;18.02;4.43;;;16.90;99.90;;;;;;5017573;28;20025;-60
2022/10/28 02:11:33;;;;;;;12.35;4.32;;;16.90;99.90;;;;;;5011563;28;20089;-59
2022/10/28 02:14:10;;;;;;;10.63;4.78;;;16.90;99.90;;;;;;5016031;28;20484;-60
2022/10/28 02:17:05;;;;;;;20.08;4.70;;;16.80;99.90;;;;;;5016502;28;20507;-60
2022/10/28 02:19:34;;;;;;;12.82;5.18;;;16.80;99.90;;;;;;5012562;28;20026;-60
2022/10/28 02:22:31;;;;;;;19.73;5.38;;;16.80;99.90;;;;;;5011986;28;20055;-59
2022/10/28 02:25:12;;;;;;;10.55;4.65;;;16.60;99.90;;;;;;4980731;28;20038;-59
2022/10/28 02:28:03;;;;;;;19.10;4.55;;;16.50;99.90;;;;;;5023756;28;20041;-60
2022/10/28 02:30:43;;;;;;;24.80;5.32;;;16.50;99.90;;;;;;5011251;28;20053;-60
2022/10/28 02:33:14;;;;;;;17.27;5.55;;;16.40;99.90;;;;;;5010400;28;20701;-60
2022/10/28 02:35:51;;;;;;;25.73;5.25;;;16.30;99.90;;;;;;5009387;28;20033;-60
2022/10/28 02:38:29;;;;;;;9.77;4.95;;;16.30;99.90;;;;;;5010139;28;20511;-60
2022/10/28 02:41:01;;;;;;;21.17;5.20;;;16.20;99.90;;;;;;4992891;28;20451;-61
2022/10/28 02:43:28;;;;;;;21.85;5.40;;;16.10;99.90;;;;;;5012867;28;20560;-62
2022/10/28 02:45:58;;;;;;;10.70;5.10;;;16.10;99.90;;;;;;5011643;28;20039;-59
2022/10/28 02:48:37;;;;;;;16.60;6.15;;;16.10;99.90;;;;;;5011404;28;20029;-60
2022/10/28 02:51:18;;;;;;;14.45;4.30;;;16.00;99.90;;;;;;5010159;28;20022;-59
2022/10/28 02:53:58;;;;;;;13.35;4.85;;;16.00;99.90;;;;;;5008883;28;20068;-59
2022/10/28 02:56:23;;;;;;;23.42;5.68;;;15.90;99.90;;;;;;5006039;28;20037;-60
2022/10/28 02:58:49;;;;;;;19.88;4.97;;;15.80;99.90;;;;;;5008465;28;20546;-59
2022/10/28 03:01:15;;;;;;;12.38;5.47;;;15.90;99.90;;;;;;5014606;28;20030;-57
2022/10/28 03:03:41;;;;;;;17.60;5.70;;;15.90;99.90;;;;;;5010865;28;20022;-60
2022/10/28 03:06:07;;;;;;;24.20;5.50;;;15.90;99.90;;;;;;5016010;28;20068;-58
2022/10/28 03:08:32;;;;;;;31.45;5.45;;;15.90;99.90;;;;;;5011109;28;20093;-60
2022/10/28 03:10:58;;;;;;;22.60;5.03;;;16.00;99.90;;;;;;5015993;28;20025;-60
2022/10/28 03:13:23;;;;;;;18.80;5.90;;;16.00;99.90;;;;;;5017038;28;20107;-58
2022/10/28 03:15:49;;;;;;;10.85;4.30;;;16.00;99.90;;;;;;5008877;28;20570;-58
2022/10/28 03:18:14;;;;;;;18.27;4.05;;;16.10;99.90;;;;;;5014839;28;20359;-59
2022/10/28 03:20:40;;;;;;;19.23;5.70;;;16.10;99.90;;;;;;5007903;28;20033;-58
2022/10/28 03:23:05;;;;;;;15.88;4.53;;;16.20;99.90;;;;;;5014354;28;20407;-59
2022/10/28 03:25:31;;;;;;;18.90;5.55;;;16.20;99.90;;;;;;5010601;28;20053;-59
2022/10/28 03:27:56;;;;;;;14.43;5.18;;;16.20;99.90;;;;;;5010723;28;20029;-59
2022/10/28 03:30:22;;;;;;;16.85;4.72;;;16.30;99.90;;;;;;5011061;28;20038;-59
2022/10/28 03:32:47;;;;;;;28.92;6.03;;;16.30;99.90;;;;;;5005422;28;20041;-60
2022/10/28 03:35:13;;;;;;;13.82;4.82;;;16.30;99.90;;;;;;5005284;28;20037;-58
2022/10/28 03:37:42;;;;;;;15.82;4.82;;;16.30;99.90;;;;;;5006846;28;20045;-59
2022/10/28 03:40:08;;;;;;;8.18;4.80;;;16.30;99.90;;;;;;5001082;28;20034;-57
2022/10/28 03:42:34;;;;;;;16.02;4.70;;;16.30;99.90;;;;;;5007392;28;20435;-60
2022/10/28 03:44:59;;;;;;;10.75;4.43;;;16.20;99.90;;;;;;5003906;28;20033;-59
2022/10/28 03:47:25;;;;;;;14.80;4.82;;;16.10;99.90;;;;;;5009309;28;20369;-59
2022/10/28 03:49:50;;;;;;;23.70;4.38;;;16.10;99.90;;;;;;5004801;28;20046;-59
2022/10/28 03:52:16;;;;;;;22.83;5.78;;;16.10;99.90;;;;;;5007210;28;20037;-60
2022/10/28 03:54:41;;;;;;;15.43;4.90;;;16.00;99.90;;;;;;5003438;28;20037;-59
2022/10/28 03:57:07;;;;;;;15.32;5.28;;;16.00;99.90;;;;;;5008520;28;20135;-60
2022/10/28 03:59:32;;;;;;;16.13;5.65;;;16.00;99.90;;;;;;5004567;28;20049;-60
2022/10/28 04:01:58;;;;;;;9.50;4.10;;;15.90;99.90;;;;;;5004855;28;20037;-60
2022/10/28 04:04:23;;;;;;;16.27;4.70;;;15.90;99.90;;;;;;5005542;28;20037;-60
2022/10/28 04:06:49;;;;;;;15.75;4.63;;;15.80;99.90;;;;;;5008284;28;20055;-60
2022/10/28 04:09:14;;;;;;;20.88;6.45;;;15.80;99.90;;;;;;5007315;28;20024;-60
2022/10/28 04:11:40;;;;;;;20.63;5.00;;;15.70;99.90;;;;;;5005666;28;20030;-59
2022/10/28 04:14:05;;;;;;;13.02;4.68;;;15.60;99.90;;;;;;5001371;28;20057;-60
2022/10/28 04:16:31;;;;;;;23.25;5.55;;;15.50;99.90;;;;;;5005702;28;20167;-59
2022/10/28 04:18:56;;;;;;;19.45;5.60;;;15.50;99.90;;;;;;5008910;28;20098;-59
2022/10/28 04:21:22;;;;;;;18.90;5.22;;;15.40;99.90;;;;;;5008089;28;20044;-58
2022/10/28 04:23:47;;;;;;;26.67;7.93;;;15.40;99.90;;;;;;5011358;28;20041;-61
2022/10/28 04:26:14;;;;;;;18.50;5.47;;;15.40;99.90;;;;;;5010382;28;20021;-60
2022/10/28 04:28:39;;;;;;;20.30;5.30;;;15.30;99.90;;;;;;5010663;28;20071;-59
2022/10/28 04:31:05;;;;;;;14.75;6.28;;;15.30;99.90;;;;;;5009629;28;20100;-59
2022/10/28 04:33:30;;;;;;;22.25;5.65;;;15.30;99.90;;;;;;5008805;28;20040;-60
2022/10/28 04:35:56;;;;;;;11.45;4.22;;;15.20;99.90;;;;;;5006955;28;20038;-59
2022/10/28 04:38:22;;;;;;;19.15;4.90;;;15.10;99.90;;;;;;5003656;28;20493;-60
2022/10/28 04:40:48;;;;;;;17.17;5.80;;;15.10;99.90;;;;;;5007120;28;20026;-59
2022/10/28 04:43:14;;;;;;;15.60;6.35;;;15.20;99.90;;;;;;5007138;28;20068;-60
2022/10/28 04:45:40;;;;;;;16.92;5.82;;;15.20;99.90;;;;;;5006629;28;20507;-59
2022/10/28 04:48:05;;;;;;;14.35;5.45;;;15.30;99.90;;;;;;5009664;28;20030;-59
2022/10/28 04:50:31;;;;;;;11.77;5.55;;;15.40;99.90;;;;;;5009948;28;20030;-58
2022/10/28 04:52:56;;;;;;;19.88;5.55;;;15.50;99.90;;;;;;5008376;28;20038;-59
2022/10/28 04:55:22;;;;;;;21.65;5.70;;;15.60;99.90;;;;;;5012626;28;20030;-59
2022/10/28 04:57:59;;;;;;;20.75;6.90;;;15.70;99.90;;;;;;5004371;28;20573;-57
2022/10/28 05:00:25;;;;;;;22.27;5.28;;;15.80;99.90;;;;;;5008063;28;20563;-58
2022/10/28 05:02:51;;;;;;;10.57;4.35;;;15.80;99.90;;;;;;5007278;28;20058;-59
2022/10/28 05:05:17;;;;;;;16.27;5.03;;;15.80;99.90;;;;;;5008744;28;20115;-59
2022/10/28 05:07:42;;;;;;;16.92;5.78;;;15.80;99.90;;;;;;5007068;28;20395;-58
2022/10/28 05:10:08;;;;;;;25.55;5.25;;;15.90;99.90;;;;;;5015833;28;20038;-59
2022/10/28 05:12:34;;;;;;;21.17;5.35;;;15.90;99.90;;;;;;5007973;28;20029;-59
2022/10/28 05:14:59;;;;;;;23.23;6.05;;;15.80;99.90;;;;;;5004600;28;20053;-59
2022/10/28 05:17:25;;;;;;;27.48;7.15;;;15.90;99.90;;;;;;5005027;28;20034;-59
2022/10/28 05:19:50;;;;;;;23.08;6.57;;;15.80;99.90;;;;;;5012976;28;20087;-59
2022/10/28 05:22:16;;;;;;;16.58;5.28;;;15.80;99.90;;;;;;5010314;28;20041;-59
2022/10/28 05:24:41;;;;;;;16.73;4.97;;;15.80;99.90;;;;;;5010483;28;20029;-58
2022/10/28 05:27:07;;;;;;;18.30;5.15;;;15.80;99.90;;;;;;5014332;28;20116;-59
2022/10/28 05:29:32;;;;;;;20.48;5.25;;;15.70;99.90;;;;;;5012449;28;20045;-59
2022/10/28 05:31:58;;;;;;;15.65;5.78;;;15.70;99.90;;;;;;5012318;28;20587;-59
2022/10/28 05:34:24;;;;;;;16.40;5.78;;;15.70;99.90;;;;;;5013214;28;20041;-60
2022/10/28 05:36:50;;;;;;;17.98;5.03;;;15.70;99.90;;;;;;5008751;28;20403;-59
2022/10/28 05:39:16;;;;;;;19.35;5.30;;;15.70;99.90;;;;;;5003134;28;20030;-60
2022/10/28 05:41:42;;;;;;;20.42;5.68;;;15.70;99.90;;;;;;5007978;28;20038;-56
2022/10/28 05:44:07;;;;;;;15.48;5.60;;;15.70;99.90;;;;;;5007922;28;20088;-59
2022/10/28 05:46:33;;;;;;;20.50;6.57;;;15.80;99.90;;;;;;5041849;22;20037;-66
2022/10/28 05:48:58;;;;;;;14.32;5.93;;;15.70;99.90;;;;;;5049359;28;20541;-66
2022/10/28 05:51:24;;;;;;;19.00;5.13;;;15.70;99.90;;;;;;5027683;28;20037;-67
2022/10/28 05:53:50;;;;;;;16.27;5.10;;;15.60;99.90;;;;;;5043157;28;20029;-66
2022/10/28 05:56:16;;;;;;;28.88;6.20;;;15.60;99.90;;;;;;5043418;28;20111;-67
2022/10/28 05:58:42;;;;;;;15.95;5.63;;;15.60;99.90;;;;;;5029187;28;20036;-66
2022/10/28 06:01:08;;;;;;;15.30;5.78;;;15.60;99.90;;;;;;5045179;28;20025;-66
2022/10/28 06:03:34;;;;;;;15.48;4.78;;;15.60;99.90;;;;;;5046260;28;20020;-68
2022/10/28 06:05:59;;;;;;;15.30;6.53;;;15.60;99.90;;;;;;5050921;28;20017;-67
2022/10/28 06:08:26;;;;;;;20.02;6.30;;;15.60;99.90;;;;;;5048059;28;20029;-68
2022/10/28 06:10:52;;;;;;;28.92;6.22;;;15.60;99.90;;;;;;5054193;28;20021;-68
2022/10/28 06:13:18;;;;;;;20.10;5.75;;;15.60;99.90;;;;;;5051621;28;20965;-68
2022/10/28 06:15:43;;;;;;;17.30;6.00;;;15.50;99.90;;;;;;5050359;28;20109;-68
2022/10/28 06:18:09;;;;;;;20.27;6.53;;;15.50;99.90;;;;;;5049086;28;20029;-68
2022/10/28 06:20:35;;;;;;;15.13;5.07;;;15.50;99.90;;;;;;5050457;28;20023;-67
2022/10/28 06:23:00;;;;;;;27.92;5.80;;;15.40;99.90;;;;;;5056144;28;20036;-67
2022/10/28 06:25:26;;;;;;;15.43;5.53;;;15.40;99.90;;;;;;5055424;28;20033;-67
2022/10/28 06:27:53;;;;;;;19.75;5.53;;;15.40;99.90;;;;;;5050230;28;20151;-66
2022/10/28 06:30:19;;;;;;;14.98;5.13;;;15.40;99.90;;;;;;5048195;28;20045;-67
2022/10/28 06:32:44;;;;;;;17.80;5.13;;;15.40;99.90;;;;;;5055316;28;20055;-67
2022/10/28 06:35:10;;;;;;;25.42;5.05;;;15.40;99.90;;;;;;5049418;28;20025;-67
2022/10/28 06:37:35;;;;;;;18.85;6.38;;;15.40;99.90;;;;;;5053353;28;20479;-67
2022/10/28 06:40:01;;;;;;;15.93;5.18;;;15.40;99.90;;;;;;5049733;28;20542;-67
2022/10/28 06:42:26;;;;;;;15.85;6.18;;;15.40;99.90;;;;;;5059832;28;20035;-67
2022/10/28 06:44:53;;;;;;;18.00;6.05;;;15.40;99.90;;;;;;5057790;28;20100;-67
2022/10/28 06:47:19;;;;;;;25.67;6.07;;;15.50;99.90;;;;;;5052369;28;20112;-68
2022/10/28 06:49:45;;;;;;;15.60;5.95;;;15.50;99.90;;;;;;5053368;28;20170;-68
2022/10/28 06:52:10;;;;;;;22.55;6.90;;;15.60;99.90;;;;;;5045376;28;20541;-68
2022/10/28 06:54:36;;;;;;;24.48;7.78;;;15.70;99.90;;;;;;5048504;28;20033;-68
2022/10/28 06:57:01;;;;;;;28.92;6.90;;;15.70;99.90;;;;;;5051276;28;20033;-67
2022/10/28 06:59:27;;;;;;;11.38;5.53;;;15.80;99.90;;;;;;5051501;28;20061;-68
2022/10/28 07:01:52;;;;;;;14.40;5.70;;;15.80;99.90;;;;;;5051447;28;20063;-69
2022/10/28 07:04:18;;;;;;;19.98;6.43;;;15.80;99.90;;;;;;5049578;28;20132;-67
2022/10/28 07:06:43;;;;;;;24.23;6.47;;;15.80;99.90;;;;;;5049459;28;20166;-67
2022/10/28 07:09:13;;;;;;;16.88;4.50;;;15.80;99.90;;;;;;5054686;28;20111;-68
2022/10/28 07:11:39;;;;;;;19.70;5.75;;;15.80;99.90;;;;;;5051917;28;20028;-67
2022/10/28 07:14:04;;;;;;;18.23;5.78;;;15.80;99.90;;;;;;5032618;28;20025;-67
2022/10/28 07:16:30;;;;;;;21.23;5.53;;;15.80;99.90;;;;;;5046934;28;20033;-67
2022/10/28 07:18:55;;;;;;;14.50;5.57;;;15.90;99.90;;;;;;5050609;28;20502;-68
2022/10/28 07:21:24;;;;;;;23.27;6.28;;;16.00;99.90;;;;;;5048145;28;20515;-66
2022/10/28 07:23:50;;;;;;;24.23;6.20;;;16.00;99.90;;;;;;5050541;28;20048;-66
2022/10/28 07:26:16;;;;;;;23.08;6.47;;;16.00;99.90;;;;;;5052033;28;20037;-68
2022/10/28 07:28:42;;;;;;;24.38;5.20;;;16.00;99.90;;;;;;5049394;28;20062;-68
2022/10/28 07:31:07;;;;;;;13.93;5.18;;;16.10;99.90;;;;;;5049412;28;21686;-68
2022/10/28 07:33:33;;;;;;;26.48;6.50;;;16.10;99.90;;;;;;5047979;28;20041;-67
2022/10/28 07:36:01;;;;;;;18.73;5.88;;;16.10;99.90;;;;;;5045429;28;20035;-67
2022/10/28 07:38:26;;;;;;;20.13;5.50;;;16.10;99.90;;;;;;5048639;28;20396;-67
2022/10/28 07:40:52;;;;;;;19.15;5.88;;;16.10;99.90;;;;;;5050077;28;20037;-67
2022/10/28 07:43:17;;;;;;;18.58;5.47;;;16.10;99.90;;;;;;5046589;28;20490;-68
2022/10/28 07:45:43;;;;;;;12.57;4.68;;;16.20;99.90;;;;;;5049751;28;20424;-67
2022/10/28 07:48:09;;;;;;;17.38;5.18;;;16.30;99.90;;;;;;5049566;28;20028;-67
2022/10/28 07:50:34;;;;;;;18.63;5.03;;;16.40;99.90;;;;;;5061592;28;20020;-68
2022/10/28 07:53:00;;;;;;;15.80;4.80;;;16.50;99.90;;;;;;5050379;28;20059;-68
2022/10/28 07:55:25;;;;;;;13.75;5.38;;;16.60;99.90;;;;;;5063300;28;20024;-66
2022/10/28 07:57:51;;;;;;;30.55;5.43;;;16.70;99.90;;;;;;5050700;28;20029;-67
2022/10/28 08:00:17;;;;;;;24.35;5.30;;;16.80;99.90;;;;;;5057913;28;20166;-67
2022/10/28 08:02:42;;;;;;;24.27;5.85;;;16.80;99.90;;;;;;5051311;28;20148;-68
2022/10/28 08:05:08;;;;;;;24.38;6.03;;;16.90;99.90;;;;;;5059956;28;20559;-67
2022/10/28 08:07:33;;;;;;;20.70;5.60;;;16.90;99.90;;;;;;5048825;28;20039;-67
2022/10/28 08:09:59;;;;;;;17.75;5.97;;;17.00;99.90;;;;;;5050451;28;20490;-68
2022/10/28 08:12:26;;;;;;;18.80;5.18;;;17.10;99.90;;;;;;5050684;28;20033;-67
2022/10/28 08:14:51;;;;;;;21.98;5.25;;;17.20;99.90;;;;;;5048478;28;20036;-67
2022/10/28 08:17:17;;;;;;;18.02;5.43;;;17.20;99.90;;;;;;5049363;28;20045;-67
2022/10/28 08:19:42;;;;;;;12.10;4.90;;;17.30;99.90;;;;;;5049180;28;20029;-67
2022/10/28 08:22:08;;;;;;;22.33;5.40;;;17.40;99.90;;;;;;5050455;28;20032;-68
2022/10/28 08:24:34;;;;;;;19.95;5.53;;;17.40;99.90;;;;;;5052780;28;20023;-68
2022/10/28 08:27:00;;;;;;;20.33;5.53;;;17.40;99.90;;;;;;5055584;28;20020;-67
2022/10/28 08:29:26;;;;;;;19.50;5.78;;;17.40;99.90;;;;;;5059440;28;20399;-67
2022/10/28 08:31:51;;;;;;;17.70;4.95;;;17.40;99.90;;;;;;5046181;28;20025;-68
2022/10/28 08:34:17;;;;;;;28.58;6.15;;;17.40;99.90;;;;;;5057452;28;20028;-68
2022/10/28 08:36:42;;;;;;;19.75;5.25;;;17.40;99.90;;;;;;5048353;28;20028;-67
2022/10/28 08:39:08;;;;;;;21.92;5.60;;;17.50;99.90;;;;;;5048965;28;20031;-67
2022/10/28 08:41:48;;;;;;;24.98;5.95;;;17.50;99.90;;;;;;5052079;28;20037;-67
2022/10/28 08:44:25;;;;;;;11.98;5.53;;;17.50;99.90;;;;;;5056825;28;20386;-68
2022/10/28 08:47:09;;;;;;;14.23;4.78;;;17.50;99.90;;;;;;5049039;28;20032;-68
2022/10/28 08:49:40;;;;;;;11.98;4.65;;;17.70;99.90;;;;;;5048633;28;20031;-67
2022/10/28 08:52:23;;;;;;;25.52;6.15;;;17.70;99.90;;;;;;5053235;28;20040;-67
2022/10/28 08:54:56;;;;;;;18.98;5.82;;;17.70;99.90;;;;;;5050304;28;20025;-67
2022/10/28 08:57:37;;;;;;;22.25;5.45;;;17.80;99.90;;;;;;5048314;28;20033;-67
2022/10/28 09:00:15;;;;;;;13.90;5.07;;;17.90;99.90;;;;;;5045169;28;20021;-67
2022/10/28 09:02:51;;;;;;;17.05;4.03;;;17.90;99.90;;;;;;5044873;28;20033;-67
2022/10/28 09:05:22;;;;;;;19.38;5.18;;;18.00;99.90;;;;;;5052842;28;20502;-67
2022/10/28 09:07:48;;;;;;;23.25;5.53;;;18.00;99.90;;;;;;5056284;28;20621;-67
2022/10/28 09:10:16;;;;;;;18.88;4.70;;;18.00;99.90;;;;;;5057302;28;20095;-67
2022/10/28 09:12:55;;;;;;;25.77;5.53;;;18.10;99.90;;;;;;5052588;28;20163;-67
2022/10/28 09:15:27;;;;;;;16.15;4.15;;;18.20;99.90;;;;;;5055325;28;20514;-66
2022/10/28 09:17:58;;;;;;;17.15;4.70;;;18.30;99.90;;;;;;5033789;28;20032;-65
2022/10/28 09:20:43;;;;;;;25.85;5.25;;;18.50;99.90;;;;;;5047655;28;20562;-66
2022/10/28 09:23:18;;;;;;;12.75;5.38;;;18.60;99.90;;;;;;5045167;28;20056;-67
2022/10/28 09:25:58;;;;;;;15.20;4.72;;;18.70;99.90;;;;;;5051302;28;20063;-67
2022/10/28 09:28:30;;;;;;;12.32;5.05;;;18.80;99.90;;;;;;5045807;28;20079;-67
2022/10/28 09:31:17;;;;;;;15.80;5.18;;;18.90;99.90;;;;;;5047112;28;20244;-67
2022/10/28 09:34:12;;;;;;;15.82;5.65;;;18.90;99.90;;;;;;5052574;28;20512;-67
2022/10/28 09:36:44;;;;;;;11.30;4.65;;;18.90;99.90;;;;;;5019673;28;20044;-68
2022/10/28 09:39:20;;;;;;;19.85;5.43;;;18.90;99.90;;;;;;5048907;28;20056;-67
2022/10/28 09:41:48;;;;;;;28.48;6.45;;;18.90;99.90;;;;;;5052721;28;20028;-68
2022/10/28 09:44:31;;;;;;;21.52;5.15;;;18.90;99.90;;;;;;5054196;28;20107;-66
2022/10/28 09:46:59;;;;;;;14.23;5.45;;;19.00;99.90;;;;;;5051878;28;20021;-66
2022/10/28 09:49:29;;;;;;;20.02;5.20;;;19.10;99.90;;;;;;5051638;28;20036;-67
2022/10/28 09:52:12;;;;;;;19.67;5.28;;;19.30;99.90;;;;;;5048504;28;20032;-66
2022/10/28 09:54:41;;;;;;;16.52;4.95;;;19.40;99.90;;;;;;5059621;28;20036;-66
2022/10/28 09:57:07;;;;;;;21.58;4.93;;;19.50;99.90;;;;;;5051027;28;20478;-66
2022/10/28 09:59:33;;;;;;;12.38;4.72;;;19.70;99.90;;;;;;5050914;28;20021;-66
2022/10/28 10:01:59;;;;;;;19.10;5.43;;;19.90;99.90;;;;;;5043913;28;20131;-66
2022/10/28 10:04:26;;;;;;;22.73;4.95;;;20.10;99.90;;;;;;5042492;28;20120;-67
2022/10/28 10:07:07;;;;;;;23.80;4.75;;;20.20;99.90;;;;;;5052412;28;20401;-66
2022/10/28 10:09:34;;;;;;;14.60;5.45;;;20.30;99.90;;;;;;5051474;28;20032;-65
2022/10/28 10:12:06;;;;;;;16.23;4.63;;;20.50;99.90;;;;;;5051830;28;20104;-67
2022/10/28 10:14:42;;;;;;;17.48;4.40;;;20.60;99.90;;;;;;5060963;28;20132;-67
2022/10/28 10:17:34;;;;;;;19.38;5.57;;;20.80;99.90;;;;;;5049771;28;20029;-67
2022/10/28 10:20:05;;;;;;;22.13;4.78;;;20.90;99.90;;;;;;5044508;28;20105;-65
2022/10/28 10:22:35;;;;;;;16.42;4.25;;;21.00;99.90;;;;;;5057490;28;20087;-67
2022/10/28 10:25:02;;;;;;;20.88;4.63;;;21.10;99.90;;;;;;5046316;28;20082;-67
2022/10/28 10:27:30;;;;;;;18.30;3.97;;;21.10;99.90;;;;;;5059059;28;20022;-66
2022/10/28 10:29:57;;;;;;;26.13;4.32;;;21.10;99.90;;;;;;5047676;28;20017;-67
2022/10/28 10:32:29;;;;;;;21.45;4.28;;;21.10;99.90;;;;;;5055516;28;20060;-67
2022/10/28 10:35:13;;;;;;;16.30;4.32;;;21.20;99.90;;;;;;5043345;28;20600;-66
2022/10/28 10:37:42;;;;;;;14.98;4.22;;;21.30;99.90;;;;;;5049549;28;20081;-67
2022/10/28 10:40:23;;;;;;;12.68;4.43;;;21.40;99.90;;;;;;5035557;28;20491;-67
2022/10/28 10:42:49;;;;;;;24.15;4.55;;;21.40;99.90;;;;;;5042699;28;20055;-67
2022/10/28 10:45:18;;;;;;;15.80;4.13;;;21.50;99.90;;;;;;5049748;28;20025;-67
2022/10/28 10:47:43;;;;;;;20.05;3.90;;;21.50;99.90;;;;;;5051837;28;20036;-67
2022/10/28 10:50:27;;;;;;;26.35;5.25;;;21.60;99.90;;;;;;5051453;28;20481;-67
2022/10/28 10:52:59;;;;;;;22.30;4.72;;;21.70;99.90;;;;;;5039717;28;20037;-66
2022/10/28 10:55:35;;;;;;;15.07;3.90;;;21.60;99.90;;;;;;5042655;28;20033;-67
2022/10/28 10:58:01;;;;;;;16.05;4.47;;;21.70;99.90;;;;;;5043173;28;20021;-67
2022/10/28 11:00:36;;;;;;;27.80;4.57;;;21.80;99.90;;;;;;5047043;28;20099;-67
2022/10/28 11:03:14;;;;;;;19.40;5.28;;;21.90;99.90;;;;;;5039374;28;20029;-67
2022/10/28 11:05:48;;;;;;;15.05;4.47;;;22.10;99.90;;;;;;5055430;28;20020;-67
2022/10/28 11:08:24;;;;;;;;;;;22.30;99.90;;;;;;5038333;28;20025;-67
2022/10/28 11:11:11;;;;;;;28.08;5.15;;;22.50;99.90;;;;;;5043456;28;19915;-68
2022/10/28 11:13:38;;;;;;;13.45;4.32;;;22.70;99.90;;;;;;5051744;28;20470;-67
2022/10/28 11:16:23;;;;;;;19.15;4.57;;;23.00;99.90;;;;;;5044571;28;20037;-67
2022/10/28 11:18:51;;;;;;;15.05;3.83;;;23.10;99.90;;;;;;5053839;28;20028;-67
2022/10/28 11:21:30;;;;;;;20.10;4.18;;;23.30;99.90;;;;;;5049339;28;20036;-67
2022/10/28 11:24:16;;;;;;;19.35;4.57;;;23.50;99.90;;;;;;5037795;28;20025;-67
2022/10/28 11:26:53;;;;;;;23.77;4.47;;;23.70;99.90;;;;;;5047259;28;20017;-67
2022/10/28 11:29:19;;;;;;;14.18;4.30;;;23.80;99.90;;;;;;5051811;28;20025;-67
2022/10/28 11:32:01;;;;;;;16.10;3.63;;;24.00;99.90;;;;;;5047247;28;20108;-67
2022/10/28 11:34:52;;;;;;;27.48;4.43;;;24.20;99.90;;;;;;5049921;28;20476;-66
2022/10/28 11:37:26;;;;;;;24.17;5.65;;;24.20;99.90;;;;;;5043827;28;20144;-67
2022/10/28 11:39:51;;;;;;;;;;;24.00;99.90;;;;;;5052958;28;20107;-67
2022/10/28 11:42:33;;;;;;;27.35;3.75;;;23.90;99.90;;;;;;5035430;28;20001;-67
2022/10/28 11:45:32;;;;;;;17.38;3.85;;;23.80;99.90;;;;;;5045453;28;20028;-67
2022/10/28 11:48:27;;;;;;;13.10;4.22;;;23.70;99.90;;;;;;5047552;22;20047;-60
2022/10/28 11:51:07;;;;;;;17.83;3.88;;;23.70;99.90;;;;;;4998126;28;20095;-58
2022/10/28 11:53:46;;;;;;;19.65;3.90;;;23.70;99.90;;;;;;5028944;28;20030;-61
2022/10/28 11:56:17;;;;;;;15.50;3.80;;;23.80;99.90;;;;;;5027538;28;20021;-60
2022/10/28 11:59:08;;;;;;;16.10;3.45;;;24.00;99.90;;;;;;5033671;28;20020;-58
2022/10/28 12:01:51;;;;;;;16.42;3.92;;;24.10;99.90;;;;;;5016824;28;20488;-62
2022/10/28 12:04:41;;;;;;;14.90;3.90;;;24.10;99.90;;;;;;5025172;28;20014;-61
2022/10/28 12:07:47;;;;;;;23.33;4.55;;;24.20;99.90;;;;;;5020078;28;20049;-59
2022/10/28 12:10:28;;;;;;;20.98;3.17;;;24.20;99.90;;;;;;5011172;28;20426;-60
2022/10/28 12:13:13;;;;;;;23.92;4.40;;;24.30;99.90;;;;;;5033525;28;20495;-61
2022/10/28 12:15:41;;;;;;;15.40;4.03;;;24.50;99.90;;;;;;5014238;28;20091;-60
2022/10/28 12:18:32;;;;;;;17.88;4.13;;;24.80;99.90;;;;;;5036487;28;20033;-60
2022/10/28 12:21:05;;;;;;;22.13;4.35;;;24.90;99.90;;;;;;5024140;28;20238;-62
2022/10/28 12:23:33;;;;;;;19.60;3.88;;;25.00;99.90;;;;;;5032814;28;20033;-61
2022/10/28 12:26:00;;;;;;;17.73;3.30;;;25.00;99.90;;;;;;5021705;28;20108;-57
2022/10/28 12:28:31;;;;;;;17.27;3.70;;;25.10;99.90;;;;;;5026529;28;20028;-62
2022/10/28 12:30:57;;;;;;;18.42;3.90;;;25.10;99.90;;;;;;5037585;28;20103;-61
2022/10/28 12:33:38;;;;;;;18.98;4.00;;;25.10;99.90;;;;;;5031949;28;20033;-58
2022/10/28 12:36:03;;;;;;;18.45;3.25;;;25.00;99.90;;;;;;5027188;28;20037;-60
2022/10/28 12:38:43;;;;;;;14.88;4.28;;;25.00;99.90;;;;;;5028243;28;20519;-60
2022/10/28 12:41:21;;;;;;;21.98;3.95;;;24.90;99.90;;;;;;5026148;28;20039;-61
2022/10/28 12:43:57;;;;;;;17.45;3.40;;;24.60;99.90;;;;;;5025358;28;20026;-59
2022/10/28 12:46:47;;;;;;;27.23;4.00;;;24.50;99.90;;;;;;4990311;28;1031471;-60
2022/10/28 12:49:35;;;;;;;25.65;4.00;;;24.40;99.90;;;;;;5027816;28;20037;-61
2022/10/28 12:52:12;;;;;;;21.23;3.35;;;24.40;99.90;;;;;;5025415;28;20037;-59
2022/10/28 12:55:11;;;;;;;11.23;3.35;;;24.60;99.90;;;;;;5027332;28;20044;-61
2022/10/28 12:57:39;;;;;;;22.73;3.60;;;24.80;99.90;;;;;;5031082;28;20045;-58